Time;durP1;ratioP1;P1;durP2;ratioP2;P2;SDS_P1;SDS_P2;PMS_P1;PMS_P2;Temp;Humidity;BMP_temperature;BMP_pressure;BME280_temperature;BME280_humidity;BME280_pressure;Samples;Min_cycle;Max_cycle;Signal;HPM_P1;HPM_P2
2023/02/10 00:01:27;;;;;;;45.80;27.50;;;;;;;6.87;59.08;102149.81;5037926;28;20373;-60
2023/02/10 00:03:57;;;;;;;44.88;27.13;;;;;;;6.93;59.24;102156.31;5040993;28;20409;-59
2023/02/10 00:06:26;;;;;;;44.35;27.35;;;;;;;6.96;59.26;102155.78;5032542;28;20053;-60
2023/02/10 00:08:55;;;;;;;47.55;27.15;;;;;;;6.98;59.38;102158.31;5049902;28;20067;-60
2023/02/10 00:11:56;;;;;;;45.58;29.30;;;;;;;6.99;59.13;102160.00;5050779;28;20064;-61
2023/02/10 00:14:12;;;;;;;44.40;27.58;;;;;;;6.87;59.16;102166.44;5043279;28;20053;-60
2023/02/10 00:16:39;;;;;;;44.33;28.17;;;;;;;6.93;59.45;102164.63;5043672;28;20064;-60
2023/02/10 00:19:08;;;;;;;42.70;27.58;;;;;;;6.95;59.23;102169.88;5054584;28;20425;-60
2023/02/10 00:21:35;;;;;;;41.80;27.58;;;;;;;6.94;58.84;102168.22;5042713;28;20041;-61
2023/02/10 00:24:03;;;;;;;39.72;26.40;;;;;;;6.91;59.27;102159.31;5045735;28;20056;-60
2023/02/10 00:26:30;;;;;;;49.60;30.45;;;;;;;6.99;59.09;102162.75;5050718;28;20490;-60
2023/02/10 00:28:58;;;;;;;41.28;27.55;;;;;;;7.00;58.71;102164.47;5054954;28;20049;-60
2023/02/10 00:31:25;;;;;;;40.20;27.33;;;;;;;6.96;59.03;102166.88;5048705;28;20064;-60
2023/02/10 00:33:52;;;;;;;42.38;29.08;;;;;;;6.87;59.23;102158.13;5043975;28;20080;-60
2023/02/10 00:36:21;;;;;;;40.10;26.95;;;;;;;6.97;58.96;102162.16;5036429;28;20505;-60
2023/02/10 00:38:52;;;;;;;42.05;26.98;;;;;;;6.98;58.85;102161.09;5053804;28;20045;-60
2023/02/10 00:41:24;;;;;;;44.55;28.88;;;;;;;7.01;58.77;102158.66;5050280;28;20049;-60
2023/02/10 00:43:52;;;;;;;40.65;25.77;;;;;;;6.97;58.61;102157.50;5034185;28;20053;-60
2023/02/10 00:46:21;;;;;;;45.25;28.17;;;;;;;7.03;58.44;102152.88;5050157;28;20858;-60
2023/02/10 00:48:49;;;;;;;40.90;26.70;;;;;;;6.90;58.91;102152.06;5054687;28;20049;-60
2023/02/10 00:51:17;;;;;;;42.78;28.83;;;;;;;6.97;59.00;102156.63;5046687;28;20061;-60
2023/02/10 00:53:48;;;;;;;39.70;27.15;;;;;;;6.97;58.42;102151.09;5043838;28;20046;-60
2023/02/10 00:56:15;;;;;;;41.22;27.25;;;;;;;6.88;58.90;102156.19;5034794;28;20061;-61
2023/02/10 00:58:45;;;;;;;44.40;28.58;;;;;;;6.88;58.95;102159.78;5053869;28;20414;-60
2023/02/10 01:01:13;;;;;;;44.35;28.55;;;;;;;6.83;59.29;102156.94;5052725;28;20056;-60
2023/02/10 01:03:40;;;;;;;43.28;27.17;;;;;;;6.79;59.40;102166.84;5053657;28;20053;-60
2023/02/10 01:06:08;;;;;;;41.70;26.20;;;;;;;6.78;59.47;102170.69;5049794;28;20049;-61
2023/02/10 01:08:38;;;;;;;42.45;28.52;;;;;;;6.69;59.92;102170.22;5054611;28;20064;-60
2023/02/10 01:11:11;;;;;;;40.97;27.83;;;;;;;6.71;60.18;102164.47;5050472;28;20048;-60
2023/02/10 01:13:39;;;;;;;40.50;27.40;;;;;;;6.75;59.92;102175.88;5046352;28;20403;-60
2023/02/10 01:16:09;;;;;;;41.53;28.13;;;;;;;6.70;59.87;102169.16;5033544;28;20142;-61
2023/02/10 01:18:36;;;;;;;;;;;;;;;6.61;60.30;102172.56;5042179;28;20060;-60
2023/02/10 01:21:07;;;;;;;42.95;28.08;;;;;;;6.66;59.97;102173.50;5035848;28;19925;-60
2023/02/10 01:23:34;;;;;;;47.22;29.38;;;;;;;6.66;60.16;102175.44;5051976;28;20052;-60
2023/02/10 01:26:02;;;;;;;42.13;28.00;;;;;;;6.68;60.15;102170.50;5050695;28;20049;-60
2023/02/10 01:28:30;;;;;;;46.22;28.17;;;;;;;6.65;60.50;102176.50;5034292;28;20061;-60
2023/02/10 01:30:58;;;;;;;52.08;31.02;;;;;;;6.65;60.31;102173.75;5045992;28;20052;-60
2023/02/10 01:33:25;;;;;;;45.08;29.30;;;;;;;6.67;60.12;102185.41;5052582;28;20062;-60
2023/02/10 01:35:52;;;;;;;43.80;27.83;;;;;;;6.68;60.46;102187.94;5049763;28;20045;-59
2023/02/10 01:38:20;;;;;;;47.58;30.58;;;;;;;6.69;60.31;102178.53;5036246;28;20058;-60
2023/02/10 01:40:49;;;;;;;44.50;29.27;;;;;;;6.69;61.04;102184.06;5052006;28;20053;-59
2023/02/10 01:43:18;;;;;;;47.72;29.88;;;;;;;6.65;61.14;102184.81;5044511;28;20060;-59
2023/02/10 01:45:49;;;;;;;44.97;30.50;;;;;;;6.62;61.03;102188.09;5050304;28;20075;-60
2023/02/10 01:48:17;;;;;;;45.22;29.45;;;;;;;6.67;60.96;102179.88;5051188;28;20060;-60
2023/02/10 01:50:49;;;;;;;44.15;29.40;;;;;;;6.68;60.82;102192.66;5037052;28;20505;-60
2023/02/10 01:53:16;;;;;;;44.92;28.13;;;;;;;6.70;61.20;102183.00;5049243;28;20423;-59
2023/02/10 01:55:47;;;;;;;46.42;29.73;;;;;;;6.79;60.81;102189.00;5052578;28;20060;-61
2023/02/10 01:58:18;;;;;;;44.17;27.20;;;;;;;6.80;60.35;102179.56;5035031;28;20053;-60
2023/02/10 02:00:46;;;;;;;43.03;28.02;;;;;;;6.89;60.39;102188.34;5036958;28;20052;-60
2023/02/10 02:03:14;;;;;;;42.40;29.50;;;;;;;6.90;60.71;102196.41;5036318;28;20061;-60
2023/02/10 02:05:43;;;;;;;45.40;30.20;;;;;;;6.94;60.60;102196.75;5040967;28;20052;-60
2023/02/10 02:08:15;;;;;;;47.15;30.30;;;;;;;6.88;60.43;102203.28;5045522;28;20053;-60
2023/02/10 02:10:59;;;;;;;44.92;30.75;;;;;;;6.87;60.48;102208.00;5044564;28;20056;-60
2023/02/10 02:13:49;;;;;;;46.00;28.40;;;;;;;6.88;60.94;102204.13;5041095;28;20414;-59
2023/02/10 02:16:23;;;;;;;;;;;;;;;6.93;60.65;102206.16;5047140;28;20390;-60
2023/02/10 02:19:00;;;;;;;47.75;30.02;;;;;;;6.89;60.74;102207.75;5043540;28;19939;-60
2023/02/10 02:22:05;;;;;;;45.35;28.85;;;;;;;6.93;60.63;102214.47;5043042;28;20045;-60
2023/02/10 02:25:03;;;;;;;45.30;28.80;;;;;;;6.93;60.83;102210.84;5051617;28;20057;-60
2023/02/10 02:31:38;;;;;;;43.97;29.98;;;;;;;6.76;61.20;102206.13;5032267;28;20048;-60
2023/02/10 02:34:13;;;;;;;45.63;31.23;;;;;;;6.59;61.56;102208.78;5035362;28;20413;-60
2023/02/10 02:36:46;;;;;;;47.85;30.08;;;;;;;6.63;61.29;102209.97;5041465;28;20045;-60
2023/02/10 02:39:13;;;;;;;45.15;30.55;;;;;;;6.68;61.61;102212.03;5047249;28;20056;-61
2023/02/10 02:41:40;;;;;;;46.85;29.25;;;;;;;6.74;61.61;102208.28;5043579;28;20052;-60
2023/02/10 02:44:16;;;;;;;50.70;30.73;;;;;;;6.76;61.83;102221.88;5049396;28;20053;-60
2023/02/10 02:46:54;;;;;;;45.35;30.10;;;;;;;6.80;61.44;102223.88;5032636;28;20053;-60
2023/02/10 02:49:30;;;;;;;45.90;29.80;;;;;;;6.81;61.52;102220.06;5047214;28;20068;-60
2023/02/10 02:52:04;;;;;;;48.22;29.17;;;;;;;6.85;61.62;102214.88;5052367;28;20049;-60
2023/02/10 02:54:42;;;;;;;45.47;28.95;;;;;;;6.82;61.62;102216.19;5039438;28;20052;-60
2023/02/10 02:57:17;;;;;;;49.65;30.52;;;;;;;6.78;61.73;102228.84;5043606;28;20050;-60
2023/02/10 02:59:50;;;;;;;45.40;28.42;;;;;;;6.82;61.41;102221.72;5044278;28;20057;-60
2023/02/10 03:02:20;;;;;;;44.55;29.17;;;;;;;6.81;61.65;102231.13;5044697;28;20425;-59
2023/02/10 03:04:49;;;;;;;47.90;31.67;;;;;;;6.82;61.84;102227.25;5048947;28;20053;-60
2023/02/10 03:07:16;;;;;;;46.88;29.77;;;;;;;6.81;61.75;102230.28;5051546;28;20111;-60
2023/02/10 03:09:43;;;;;;;46.47;31.30;;;;;;;6.73;61.70;102230.69;5051022;28;20490;-60
2023/02/10 03:12:12;;;;;;;44.95;29.88;;;;;;;6.69;62.00;102227.56;5051995;28;20053;-60
2023/02/10 03:14:39;;;;;;;46.13;30.85;;;;;;;6.56;62.08;102231.44;5052084;28;20064;-60
2023/02/10 03:17:06;;;;;;;46.00;30.33;;;;;;;6.48;62.42;102231.81;5050584;28;20063;-60
2023/02/10 03:19:34;;;;;;;45.22;29.77;;;;;;;6.41;62.36;102225.56;5052361;28;20056;-59
2023/02/10 03:22:02;;;;;;;46.88;32.53;;;;;;;6.40;62.83;102221.13;5051993;28;20393;-60
2023/02/10 03:24:30;;;;;;;44.63;29.30;;;;;;;6.27;63.14;102223.06;5048717;28;20482;-60
2023/02/10 03:26:57;;;;;;;51.55;32.33;;;;;;;6.25;63.22;102227.97;5031980;28;20398;-60
2023/02/10 03:29:24;;;;;;;48.20;30.50;;;;;;;6.21;62.95;102223.19;5031708;28;20064;-59
2023/02/10 03:31:51;;;;;;;48.40;30.90;;;;;;;6.10;63.90;102214.66;5040952;28;20076;-60
2023/02/10 03:34:19;;;;;;;45.83;30.50;;;;;;;5.97;63.76;102214.91;5035136;28;20056;-60
2023/02/10 03:36:46;;;;;;;45.08;29.80;;;;;;;5.95;64.23;102210.69;5032160;28;20062;-61
2023/02/10 03:39:15;;;;;;;48.50;29.63;;;;;;;5.90;63.92;102208.63;5033839;28;20410;-60
2023/02/10 03:41:42;;;;;;;46.55;30.70;;;;;;;5.88;63.55;102208.03;5034013;28;20153;-60
2023/02/10 03:44:09;;;;;;;46.85;31.10;;;;;;;5.67;64.57;102215.81;5043543;28;20497;-60
2023/02/10 03:46:36;;;;;;;50.33;33.45;;;;;;;5.62;64.77;102201.03;5055015;28;20072;-61
2023/02/10 03:49:04;;;;;;;49.75;31.73;;;;;;;5.48;65.35;102205.91;5054635;28;20060;-60
2023/02/10 03:51:31;;;;;;;48.30;32.50;;;;;;;5.48;64.63;102204.03;5055875;28;20060;-60
2023/02/10 03:53:58;;;;;;;53.88;33.25;;;;;;;5.39;65.45;102204.59;5051581;28;20429;-60
2023/02/10 03:56:27;;;;;;;53.33;33.28;;;;;;;5.31;65.36;102200.22;5054007;28;20482;-60
2023/02/10 03:58:54;;;;;;;52.05;32.22;;;;;;;5.34;65.19;102196.19;5056226;28;20060;-62
2023/02/10 04:01:21;;;;;;;52.08;32.38;;;;;;;5.33;65.32;102198.06;5055920;28;20049;-62
2023/02/10 04:03:49;;;;;;;51.22;32.45;;;;;;;5.28;65.34;102203.47;5053146;28;20413;-61
2023/02/10 04:06:16;;;;;;;49.80;30.65;;;;;;;5.22;65.81;102202.50;5055632;28;20466;-62
2023/02/10 04:08:43;;;;;;;48.00;31.83;;;;;;;5.17;65.70;102213.44;5054977;28;20048;-62
2023/02/10 04:11:11;;;;;;;56.95;33.58;;;;;;;5.13;66.35;102211.38;5055327;28;20049;-62
2023/02/10 04:13:39;;;;;;;52.25;34.35;;;;;;;5.09;66.31;102216.53;5055445;28;20053;-62
2023/02/10 04:16:09;;;;;;;52.30;33.70;;;;;;;5.06;65.68;102214.22;5055113;28;20061;-62
2023/02/10 04:18:37;;;;;;;48.83;33.40;;;;;;;5.03;66.01;102217.47;5054102;28;20048;-62
2023/02/10 04:21:06;;;;;;;53.42;34.38;;;;;;;5.01;65.52;102222.38;5055214;28;20055;-61
2023/02/10 04:23:33;;;;;;;52.10;30.90;;;;;;;4.88;66.63;102226.16;5055362;28;20405;-61
2023/02/10 04:26:00;;;;;;;56.70;33.33;;;;;;;4.87;65.26;102221.69;5055056;28;20483;-61
2023/02/10 04:28:28;;;;;;;56.47;32.60;;;;;;;4.82;65.31;102225.16;5055393;28;20061;-61
2023/02/10 04:30:59;;;;;;;51.88;32.25;;;;;;;4.77;66.47;102225.03;5055179;28;20055;-60
2023/02/10 04:33:27;;;;;;;54.25;32.75;;;;;;;4.70;66.06;102224.25;5053882;28;20076;-62
2023/02/10 04:35:55;;;;;;;52.03;32.80;;;;;;;4.66;66.49;102223.91;5055138;28;20072;-61
2023/02/10 04:38:23;;;;;;;57.00;34.35;;;;;;;4.62;65.65;102235.59;5054818;28;20060;-62
2023/02/10 04:40:50;;;;;;;51.72;32.25;;;;;;;4.51;65.66;102231.72;5054906;28;20071;-61
2023/02/10 04:43:17;;;;;;;52.88;32.15;;;;;;;4.49;66.67;102231.09;5054995;28;20061;-62
2023/02/10 04:45:45;;;;;;;60.60;34.95;;;;;;;4.45;66.47;102229.88;5055222;28;20049;-61
2023/02/10 04:48:14;;;;;;;59.00;34.35;;;;;;;4.42;65.80;102233.94;5043084;28;20049;-61
2023/02/10 04:50:42;;;;;;;57.42;34.58;;;;;;;4.38;65.78;102226.34;5054422;28;20509;-61
2023/02/10 04:53:10;;;;;;;59.15;34.40;;;;;;;4.32;66.92;102214.31;5054744;28;20056;-61
2023/02/10 04:55:37;;;;;;;61.13;35.95;;;;;;;4.31;67.25;102209.88;5038334;28;20070;-60
2023/02/10 04:58:05;;;;;;;66.60;37.92;;;;;;;4.29;66.33;102214.78;5035233;28;20053;-61
2023/02/10 05:00:32;;;;;;;62.67;37.15;;;;;;;4.18;67.82;102216.41;5035642;28;20054;-61
2023/02/10 05:02:59;;;;;;;64.53;36.55;;;;;;;4.12;67.52;102231.09;5054098;28;20053;-61
2023/02/10 05:05:28;;;;;;;61.47;34.28;;;;;;;4.09;66.91;102230.69;5054807;28;20060;-62
2023/02/10 05:07:55;;;;;;;66.72;37.33;;;;;;;4.03;67.94;102226.94;5049225;28;20045;-62
2023/02/10 05:10:23;;;;;;;60.67;37.50;;;;;;;4.01;66.80;102224.41;5053832;28;20052;-62
2023/02/10 05:12:53;;;;;;;71.03;39.47;;;;;;;3.99;67.64;102232.06;5054670;28;20072;-62
2023/02/10 05:15:20;;;;;;;67.30;37.63;;;;;;;3.98;68.15;102230.38;5053016;28;20059;-61
2023/02/10 05:17:47;;;;;;;64.40;35.10;;;;;;;3.97;67.87;102236.97;5035777;28;20053;-61
2023/02/10 05:20:15;;;;;;;61.50;34.75;;;;;;;3.94;68.78;102231.88;5034006;28;20517;-61
2023/02/10 05:22:43;;;;;;;67.63;37.60;;;;;;;3.93;68.96;102241.25;5034031;28;20045;-62
2023/02/10 05:25:11;;;;;;;63.65;34.63;;;;;;;3.85;67.76;102236.84;5033855;28;20053;-62
2023/02/10 05:27:38;;;;;;;70.60;38.22;;;;;;;3.82;68.15;102241.97;5034319;28;20080;-62
2023/02/10 05:30:09;;;;;;;72.40;39.72;;;;;;;3.74;68.95;102250.50;5033953;28;20060;-62
2023/02/10 05:32:36;;;;;;;62.45;35.78;;;;;;;3.75;69.50;102252.22;5050212;28;20049;-62
2023/02/10 05:35:03;;;;;;;63.80;36.55;;;;;;;3.71;68.65;102251.81;5053801;28;20056;-62
2023/02/10 05:37:31;;;;;;;64.35;37.38;;;;;;;3.68;69.24;102259.72;5054054;28;20053;-62
2023/02/10 05:39:59;;;;;;;54.25;31.20;;;;;;;3.68;69.16;102251.44;5052448;28;20413;-62
2023/02/10 05:42:27;;;;;;;69.25;37.28;;;;;;;3.69;68.69;102261.38;5053619;28;20044;-62
2023/02/10 05:44:54;;;;;;;61.03;34.55;;;;;;;3.65;69.97;102261.84;5054071;28;20052;-62
2023/02/10 05:47:21;;;;;;;66.97;36.20;;;;;;;3.62;70.29;102266.94;5041879;28;20057;-62
2023/02/10 05:49:48;;;;;;;56.97;34.90;;;;;;;3.65;69.52;102274.75;5033619;28;20072;-63
2023/02/10 05:52:16;;;;;;;61.42;36.53;;;;;;;3.62;68.71;102283.47;5033513;28;20054;-63
2023/02/10 05:54:43;;;;;;;63.25;36.58;;;;;;;3.61;70.25;102279.88;5034018;28;20049;-62
2023/02/10 05:57:12;;;;;;;63.95;35.75;;;;;;;3.64;69.39;102278.59;5049033;28;20056;-63
2023/02/10 05:59:41;;;;;;;61.25;35.05;;;;;;;3.60;69.11;102289.22;5053863;28;20048;-62
2023/02/10 06:02:09;;;;;;;68.05;37.35;;;;;;;3.58;70.06;102279.47;5044124;28;20057;-62
2023/02/10 06:04:37;;;;;;;66.10;37.78;;;;;;;3.48;70.54;102290.97;5033089;28;20053;-62
2023/02/10 06:07:04;;;;;;;70.35;38.35;;;;;;;3.45;69.39;102280.41;5033247;28;20053;-60
2023/02/10 06:09:31;;;;;;;59.00;33.80;;;;;;;3.48;69.74;102290.97;5033566;28;20509;-62
2023/02/10 06:11:59;;;;;;;60.25;35.92;;;;;;;3.42;70.33;102286.34;5043457;28;20052;-63
2023/02/10 06:14:29;;;;;;;65.45;36.15;;;;;;;3.39;70.67;102295.09;5053098;28;20056;-62
2023/02/10 06:16:57;;;;;;;63.47;36.60;;;;;;;3.42;69.86;102297.38;5046842;28;20490;-62
2023/02/10 06:19:24;;;;;;;65.25;36.45;;;;;;;3.40;70.97;102299.50;5051865;28;20057;-62
2023/02/10 06:21:51;;;;;;;60.28;34.75;;;;;;;3.42;70.13;102301.00;5047119;28;20060;-62
2023/02/10 06:24:18;;;;;;;61.72;35.75;;;;;;;3.36;69.90;102301.88;5047880;28;20052;-61
2023/02/10 06:26:46;;;;;;;65.45;36.22;;;;;;;3.34;71.13;102300.38;5049046;28;20060;-63
2023/02/10 06:29:24;;;;;;;64.03;35.55;;;;;;;3.34;71.61;102305.91;5049515;28;20049;-63
2023/02/10 06:31:53;;;;;;;60.88;34.30;;;;;;;3.36;70.36;102306.53;5047294;28;20060;-63
2023/02/10 06:34:20;;;;;;;62.00;35.42;;;;;;;3.35;70.10;102305.69;5050044;28;20470;-62
2023/02/10 06:36:47;;;;;;;59.72;33.70;;;;;;;3.34;69.62;102303.16;5052771;28;20052;-60
2023/02/10 06:39:15;;;;;;;64.40;34.17;;;;;;;3.28;70.20;102299.38;5036520;28;20053;-60
2023/02/10 06:41:42;;;;;;;56.35;32.88;;;;;;;3.27;70.75;102307.84;5039678;28;20056;-59
2023/02/10 06:44:09;;;;;;;63.10;34.80;;;;;;;3.16;70.78;102313.00;5052308;28;20068;-60
2023/02/10 06:46:36;;;;;;;57.80;34.10;;;;;;;3.15;69.77;102316.81;5048618;28;20049;-60
2023/02/10 06:49:05;;;;;;;59.35;32.17;;;;;;;3.11;70.30;102320.22;5040605;28;20053;-60
2023/02/10 06:51:32;;;;;;;61.92;32.67;;;;;;;3.09;70.61;102320.47;5051354;28;20053;-60
2023/02/10 06:53:59;;;;;;;62.65;34.95;;;;;;;3.09;69.93;102320.47;5051377;28;20045;-60
2023/02/10 06:56:27;;;;;;;67.40;35.60;;;;;;;3.12;70.01;102330.19;5052355;28;20065;-60
2023/02/10 06:58:54;;;;;;;59.63;34.88;;;;;;;3.14;69.64;102333.56;5052564;28;20486;-60
2023/02/10 07:01:22;;;;;;;61.70;34.05;;;;;;;3.14;70.08;102339.91;5050382;28;20052;-60
2023/02/10 07:03:49;;;;;;;59.78;34.03;;;;;;;3.16;69.30;102345.19;5052157;28;20056;-62
2023/02/10 07:06:18;;;;;;;59.22;32.65;;;;;;;3.22;69.21;102345.16;5044575;28;20049;-62
2023/02/10 07:08:45;;;;;;;60.83;33.38;;;;;;;3.24;69.51;102342.19;5032536;28;20049;-62
2023/02/10 07:11:13;;;;;;;64.43;34.63;;;;;;;3.27;70.27;102340.91;5040504;28;20052;-62
2023/02/10 07:13:40;;;;;;;57.35;31.77;;;;;;;3.31;68.69;102340.25;5052597;28;20406;-62
2023/02/10 07:16:09;;;;;;;53.83;32.35;;;;;;;3.35;69.09;102335.97;5036614;28;20053;-62
2023/02/10 07:18:37;;;;;;;63.13;34.58;;;;;;;3.39;70.23;102336.41;5051984;28;20057;-62
2023/02/10 07:21:04;;;;;;;57.65;32.75;;;;;;;3.53;69.11;102339.91;5033707;28;20049;-62
2023/02/10 07:23:33;;;;;;;53.90;30.85;;;;;;;3.78;69.18;102337.19;5031980;28;20473;-62
2023/02/10 07:26:00;;;;;;;57.03;31.42;;;;;;;3.95;69.75;102334.72;5039176;28;20049;-62
2023/02/10 07:28:27;;;;;;;59.63;33.40;;;;;;;4.03;69.02;102335.31;5040890;28;20057;-62
2023/02/10 07:30:54;;;;;;;58.38;33.55;;;;;;;4.10;67.76;102337.19;5045253;28;20057;-62
2023/02/10 07:33:22;;;;;;;53.50;31.42;;;;;;;4.25;67.60;102330.25;5051848;28;20481;-62
2023/02/10 07:35:49;;;;;;;58.95;32.83;;;;;;;4.36;67.77;102331.41;5051782;28;20411;-63
2023/02/10 07:38:17;;;;;;;57.47;32.40;;;;;;;4.30;67.04;102320.44;5043510;28;20049;-65
2023/02/10 07:40:46;;;;;;;50.75;29.55;;;;;;;4.26;67.29;102325.56;5035512;28;20053;-61
2023/02/10 07:43:14;;;;;;;59.47;33.70;;;;;;;4.21;67.74;102325.41;5031608;28;20053;-65
2023/02/10 07:45:41;;;;;;;56.97;32.35;;;;;;;4.41;67.67;102322.44;5035714;28;20060;-65
2023/02/10 07:48:08;;;;;;;57.40;32.70;;;;;;;4.67;67.86;102321.34;5044364;28;20061;-64
2023/02/10 07:50:35;;;;;;;62.78;34.83;;;;;;;4.63;66.99;102320.09;5046165;28;20726;-65
2023/02/10 07:53:03;;;;;;;52.42;31.35;;;;;;;4.59;67.37;102329.91;5047032;28;20053;-65
2023/02/10 07:55:30;;;;;;;55.05;31.77;;;;;;;4.51;67.55;102332.97;5045878;28;20434;-65
2023/02/10 07:57:59;;;;;;;61.03;34.78;;;;;;;4.65;66.97;102334.53;5046970;28;20057;-65
2023/02/10 08:00:26;;;;;;;58.33;32.05;;;;;;;4.76;67.02;102333.75;5044373;28;20065;-64
2023/02/10 08:02:53;;;;;;;54.85;31.15;;;;;;;5.19;66.97;102335.59;5044358;28;20072;-65
2023/02/10 08:05:21;;;;;;;51.63;30.48;;;;;;;6.08;65.08;102335.78;5045110;28;20528;-61
2023/02/10 08:07:48;;;;;;;58.80;31.85;;;;;;;6.29;64.06;102339.03;5044729;28;20060;-61
2023/02/10 08:10:15;;;;;;;54.05;30.10;;;;;;;6.67;62.59;102329.41;5043317;28;20067;-65
2023/02/10 08:12:42;;;;;;;50.88;29.67;;;;;;;7.13;62.01;102335.09;5046259;28;20069;-64
2023/02/10 08:15:11;;;;;;;47.00;29.92;;;;;;;7.76;60.42;102334.09;5043211;28;20049;-64
2023/02/10 08:17:39;;;;;;;49.03;28.85;;;;;;;8.63;58.24;102334.72;5045693;28;20521;-65
2023/02/10 08:20:07;;;;;;;44.83;28.48;;;;;;;9.61;54.76;102328.44;5044389;28;20068;-64
2023/02/10 08:22:35;;;;;;;42.58;27.90;;;;;;;10.56;52.42;102329.56;5045563;28;20084;-65
2023/02/10 08:25:02;;;;;;;38.42;26.60;;;;;;;11.43;50.45;102317.13;5046376;28;20053;-65
2023/02/10 08:27:30;;;;;;;41.83;27.75;;;;;;;12.28;48.10;102325.03;5046324;28;20057;-65
2023/02/10 08:29:57;;;;;;;38.58;27.40;;;;;;;13.03;45.76;102315.94;5043902;28;20049;-65
2023/02/10 08:32:26;;;;;;;43.47;28.67;;;;;;;13.47;45.06;102321.63;5043335;28;20064;-65
2023/02/10 08:34:53;;;;;;;42.17;28.15;;;;;;;14.06;42.81;102318.97;5050068;28;20056;-66
2023/02/10 08:37:21;;;;;;;43.00;28.38;;;;;;;14.95;39.83;102319.53;5046348;28;20056;-62
2023/02/10 08:39:48;;;;;;;38.70;27.48;;;;;;;15.31;40.38;102313.44;5049864;28;20058;-63
2023/02/10 08:42:15;;;;;;;34.03;24.88;;;;;;;16.09;38.24;102319.59;5050911;28;20079;-59
2023/02/10 08:44:43;;;;;;;38.97;25.63;;;;;;;15.71;37.73;102313.16;5047152;28;20068;-59
2023/02/10 08:47:14;;;;;;;33.85;26.55;;;;;;;15.19;38.55;102325.09;5047605;28;20076;-59
2023/02/10 08:49:43;;;;;;;34.17;25.13;;;;;;;14.46;39.15;102328.97;5049719;28;20068;-59
2023/02/10 08:52:11;;;;;;;36.90;27.50;;;;;;;14.35;39.90;102321.81;5049018;28;20060;-59
2023/02/10 08:54:38;;;;;;;40.03;24.80;;;;;;;14.50;39.57;102335.66;5049438;28;20071;-59
2023/02/10 08:57:05;;;;;;;33.35;24.90;;;;;;;15.80;36.83;102331.84;5049904;28;20056;-59
2023/02/10 08:59:32;;;;;;;33.35;23.73;;;;;;;16.58;35.84;102335.03;5046766;28;20627;-59
2023/02/10 09:02:00;;;;;;;35.25;25.52;;;;;;;17.77;34.21;102334.28;5046927;28;20049;-66
2023/02/10 09:04:27;;;;;;;34.63;24.88;;;;;;;17.60;33.88;102334.13;5047115;28;20048;-65
2023/02/10 09:06:55;;;;;;;35.10;25.45;;;;;;;16.43;35.24;102336.16;5043332;28;20052;-66
2023/02/10 09:09:24;;;;;;;36.17;24.98;;;;;;;16.54;35.28;102336.81;5046546;28;20060;-65
2023/02/10 09:11:53;;;;;;;34.38;24.42;;;;;;;15.32;36.67;102343.19;5047716;28;20068;-66
2023/02/10 09:14:20;;;;;;;37.85;27.13;;;;;;;14.96;37.83;102354.03;5043169;28;20057;-65
2023/02/10 09:16:48;;;;;;;34.88;24.90;;;;;;;15.32;37.64;102354.41;5048089;28;20052;-62
2023/02/10 09:19:15;;;;;;;35.95;24.90;;;;;;;15.49;37.91;102350.28;5045048;28;20052;-66
2023/02/10 09:21:42;;;;;;;37.85;26.23;;;;;;;14.57;39.13;102364.25;5047746;28;20065;-65
2023/02/10 09:24:11;;;;;;;38.90;25.65;;;;;;;13.97;39.42;102363.59;5042677;28;20057;-66
2023/02/10 09:26:38;;;;;;;38.47;25.80;;;;;;;13.42;41.00;102368.38;5043834;28;20057;-65
2023/02/10 09:29:07;;;;;;;38.17;27.45;;;;;;;12.66;41.95;102381.47;5044198;28;20053;-59
2023/02/10 09:31:35;;;;;;;40.97;27.25;;;;;;;12.30;43.22;102373.09;5043489;28;20056;-60
2023/02/10 09:34:03;;;;;;;39.15;27.83;;;;;;;12.89;43.10;102372.50;5045847;28;20053;-58
2023/02/10 09:36:31;;;;;;;39.38;26.95;;;;;;;12.99;42.67;102383.63;5043854;28;20053;-59
2023/02/10 09:38:58;;;;;;;42.03;28.63;;;;;;;13.46;40.90;102375.09;5042978;28;20374;-59
2023/02/10 09:41:42;;;;;;;37.22;25.35;;;;;;;15.15;38.41;102376.53;5041977;28;20061;-59
2023/02/10 09:44:17;;;;;;;39.60;25.88;;;;;;;15.55;37.00;102368.72;5045264;28;20095;-59
2023/02/10 09:47:24;;;;;;;37.05;25.98;;;;;;;16.40;36.78;102367.72;5046193;28;20045;-59
2023/02/10 09:50:24;;;;;;;39.60;26.60;;;;;;;15.16;37.86;102375.38;5043946;28;20060;-59
2023/02/10 09:53:03;;;;;;;37.05;25.63;;;;;;;14.32;40.13;102372.84;5041571;28;20053;-59
2023/02/10 09:55:34;;;;;;;36.90;25.60;;;;;;;13.69;41.61;102382.84;5047611;28;20386;-59
2023/02/10 09:58:14;;;;;;;41.72;27.13;;;;;;;14.08;41.18;102375.56;5042661;28;20052;-59
2023/02/10 10:00:44;;;;;;;39.40;25.45;;;;;;;14.03;39.93;102373.66;5045263;28;20067;-58
2023/02/10 10:03:14;;;;;;;;;;;;;;;13.84;40.67;102389.44;5046575;28;20052;-59
2023/02/10 10:05:45;;;;;;;;;;;;;;;13.49;40.86;102389.38;5047664;28;20385;-65
2023/02/10 10:08:21;;;;;;;42.17;27.10;;;;;;;13.38;41.59;102388.56;5047249;28;20274;-65
2023/02/10 10:10:50;;;;;;;34.60;25.23;;;;;;;13.06;41.35;102388.09;5040122;28;20068;-61
2023/02/10 10:13:23;;;;;;;33.60;24.70;;;;;;;14.04;40.56;102383.72;5047102;28;20048;-64
2023/02/10 10:16:13;;;;;;;38.00;25.60;;;;;;;12.91;40.91;102402.97;5040508;28;20486;-65
2023/02/10 10:18:48;;;;;;;32.05;22.88;;;;;;;11.92;43.03;102400.44;5039673;28;20064;-66
2023/02/10 10:21:24;;;;;;;33.05;22.05;;;;;;;11.76;43.33;102386.44;5043088;28;20056;-61
2023/02/10 10:24:05;;;;;;;33.10;22.55;;;;;;;11.49;44.13;102394.16;5043898;28;20053;-65
2023/02/10 10:26:49;;;;;;;35.13;22.73;;;;;;;11.66;44.01;102380.81;5041648;28;20060;-65
2023/02/10 10:29:40;;;;;;;26.67;18.17;;;;;;;14.34;38.15;102371.44;5042523;28;20425;-63
2023/02/10 10:32:16;;;;;;;24.98;17.48;;;;;;;17.99;32.85;102356.03;5044664;28;20061;-65
2023/02/10 10:34:50;;;;;;;25.67;15.57;;;;;;;20.71;28.40;102338.69;5045883;28;20351;-65
2023/02/10 10:37:20;;;;;;;29.33;18.15;;;;;;;22.67;26.42;102359.81;5046705;28;20064;-66
2023/02/10 10:39:50;;;;;;;21.85;16.02;;;;;;;23.90;24.64;102354.16;5040734;28;20049;-65
2023/02/10 10:42:22;;;;;;;22.88;17.63;;;;;;;23.21;24.60;102363.72;5044409;28;20049;-64
2023/02/10 10:44:59;;;;;;;22.45;16.77;;;;;;;22.52;25.00;102351.97;5043944;28;20049;-64
2023/02/10 10:47:46;;;;;;;24.25;17.10;;;;;;;22.73;25.09;102345.41;5045675;28;20052;-65
2023/02/10 10:50:16;;;;;;;22.00;16.55;;;;;;;22.48;25.26;102348.16;5039962;28;20061;-66
2023/02/10 10:52:44;;;;;;;19.92;14.90;;;;;;;22.58;24.63;102344.88;5046872;28;20417;-64
2023/02/10 10:55:18;;;;;;;19.40;15.77;;;;;;;24.78;23.15;102344.00;5044882;28;20044;-66
2023/02/10 10:57:46;;;;;;;21.33;16.15;;;;;;;26.03;22.04;102334.78;5040115;28;20421;-66
2023/02/10 11:00:24;;;;;;;25.00;18.35;;;;;;;26.41;20.81;102331.06;5048201;28;20061;-66
2023/02/10 11:02:54;;;;;;;24.58;18.80;;;;;;;27.61;19.78;102329.81;5044755;28;20053;-66
2023/02/10 11:05:23;;;;;;;25.17;18.40;;;;;;;25.68;21.11;102333.63;5045806;28;20110;-64
2023/02/10 11:07:54;;;;;;;22.88;18.02;;;;;;;25.62;21.47;102326.53;5044739;28;20060;-66
2023/02/10 11:10:24;;;;;;;22.33;17.23;;;;;;;25.69;21.88;102329.53;5040947;28;20063;-64
2023/02/10 11:12:51;;;;;;;23.73;18.40;;;;;;;24.86;22.76;102320.19;5039679;28;20049;-66
2023/02/10 11:15:35;;;;;;;21.33;15.57;;;;;;;24.96;21.71;102324.50;5037870;28;20532;-64
2023/02/10 11:18:05;;;;;;;22.25;17.00;;;;;;;25.58;21.05;102321.97;5041345;28;20053;-65
2023/02/10 11:20:35;;;;;;;21.02;16.77;;;;;;;24.42;21.99;102318.22;5045560;28;20060;-66
2023/02/10 11:23:03;;;;;;;;;;;;;;;25.65;21.14;102316.41;5043166;28;20052;-66
2023/02/10 11:25:33;;;;;;;22.35;16.55;;;;;;;24.81;22.46;102314.78;5043360;28;19924;-66
2023/02/10 11:28:02;;;;;;;21.60;16.23;;;;;;;22.54;23.94;102309.03;5038332;28;20053;-66
2023/02/10 11:30:33;;;;;;;20.35;15.82;;;;;;;22.15;25.04;102322.59;5041098;28;20049;-67
2023/02/10 11:33:02;;;;;;;23.30;16.60;;;;;;;22.72;24.06;102303.94;5044251;28;20060;-66